createdAt,value
2022-11-20T00:01:29.592Z,13.30
2022-11-20T00:03:58.831Z,15.83
2022-11-20T00:06:28.155Z,15.40
2022-11-20T00:09:01.187Z,16.67
2022-11-20T00:11:31.038Z,15.23
2022-11-20T00:14:01.699Z,12.53
2022-11-20T00:16:32.398Z,16.53
2022-11-20T00:18:59.266Z,15.70
2022-11-20T00:21:28.868Z,13.30
2022-11-20T00:23:58.114Z,14.33
2022-11-20T00:26:27.577Z,14.60
2022-11-20T00:28:58.070Z,13.47
2022-11-20T00:31:25.394Z,14.37
2022-11-20T00:33:52.969Z,16.70
2022-11-20T00:36:23.442Z,15.10
2022-11-20T00:38:55.593Z,14.67
2022-11-20T00:41:23.924Z,12.57
2022-11-20T00:43:52.646Z,15.83
2022-11-20T00:46:23.176Z,10.30
2022-11-20T00:48:50.547Z,16.23
2022-11-20T00:51:22.043Z,17.13
2022-11-20T00:53:49.451Z,17.60
2022-11-20T00:56:19.261Z,11.90
2022-11-20T00:58:49.253Z,13.43
2022-11-20T01:01:25.149Z,16.40
2022-11-20T01:03:56.135Z,14.17
2022-11-20T01:06:33.561Z,17.10
2022-11-20T01:09:05.203Z,13.77
2022-11-20T01:11:36.841Z,16.87
2022-11-20T01:14:10.232Z,13.93
2022-11-20T01:16:41.756Z,13.67
2022-11-20T01:19:17.541Z,14.13
2022-11-20T01:21:47.175Z,14.93
2022-11-20T01:24:18.079Z,14.07
2022-11-20T01:26:47.729Z,16.50
2022-11-20T01:29:20.283Z,15.17
2022-11-20T01:31:47.353Z,13.80
2022-11-20T01:34:18.394Z,15.37
2022-11-20T01:36:46.282Z,15.23
2022-11-20T01:39:17.904Z,13.97
2022-11-20T01:42:09.415Z,16.07
2022-11-20T01:44:59.115Z,15.00
2022-11-20T01:47:45.989Z,16.63
2022-11-20T01:50:25.653Z,16.13
2022-11-20T01:53:01.646Z,13.83
2022-11-20T01:55:39.046Z,15.07
2022-11-20T01:58:06.929Z,16.00
2022-11-20T02:00:33.893Z,15.77
2022-11-20T02:03:21.433Z,14.33
2022-11-20T02:06:18.158Z,13.83
2022-11-20T02:08:45.156Z,13.03
2022-11-20T02:11:13.697Z,15.23
2022-11-20T02:13:44.045Z,13.47
2022-11-20T02:16:36.159Z,14.10
2022-11-20T02:19:10.815Z,14.87
2022-11-20T02:21:55.496Z,14.07
2022-11-20T02:24:23.870Z,15.53
2022-11-20T02:26:58.079Z,16.70
2022-11-20T02:29:32.082Z,18.27
2022-11-20T02:32:01.632Z,14.50
2022-11-20T02:34:28.555Z,15.27
2022-11-20T02:36:57.472Z,16.37
2022-11-20T02:39:28.670Z,16.77
2022-11-20T02:41:58.087Z,14.17
2022-11-20T02:44:25.067Z,14.93
2022-11-20T02:46:51.875Z,16.77
2022-11-20T02:49:18.767Z,14.43
2022-11-20T02:51:45.890Z,15.70
2022-11-20T02:54:12.728Z,15.83
2022-11-20T02:56:40.369Z,16.60
2022-11-20T02:59:08.131Z,17.47
2022-11-20T03:01:35.119Z,17.27
2022-11-20T03:04:02.094Z,17.03
2022-11-20T03:06:29.117Z,15.57
2022-11-20T03:08:56.015Z,15.90
2022-11-20T03:11:22.878Z,17.73
2022-11-20T03:13:49.672Z,16.17
2022-11-20T03:16:22.591Z,14.43
2022-11-20T03:18:50.691Z,17.23
2022-11-20T03:21:17.650Z,17.47
2022-11-20T03:23:44.620Z,16.03
2022-11-20T03:26:20.989Z,17.73
2022-11-20T03:29:05.224Z,17.17
2022-11-20T03:31:41.211Z,17.93
2022-11-20T03:34:11.085Z,16.63
2022-11-20T03:36:44.466Z,17.80
2022-11-20T03:39:11.369Z,17.67
2022-11-20T03:41:41.783Z,15.77
2022-11-20T03:44:11.191Z,13.70
2022-11-20T03:46:38.760Z,15.60
2022-11-20T03:49:06.312Z,17.67
2022-11-20T03:51:36.735Z,17.70
2022-11-20T03:54:08.018Z,19.23
2022-11-20T03:56:38.671Z,19.07
2022-11-20T03:59:06.440Z,18.23
2022-11-20T04:01:36.411Z,18.60
2022-11-20T04:04:03.740Z,17.37
2022-11-20T04:06:37.718Z,16.67
2022-11-20T04:09:05.273Z,22.93
2022-11-20T04:11:37.588Z,19.37
2022-11-20T04:14:15.142Z,20.00
2022-11-20T04:16:42.817Z,18.63
2022-11-20T04:19:17.392Z,18.90
2022-11-20T04:21:45.483Z,19.30
2022-11-20T04:24:12.572Z,21.53
2022-11-20T04:26:40.160Z,19.57
2022-11-20T04:29:07.323Z,17.63
2022-11-20T04:31:35.684Z,20.73
2022-11-20T04:34:05.766Z,24.07
2022-11-20T04:36:33.672Z,23.20
2022-11-20T04:39:04.741Z,22.33
2022-11-20T04:41:35.547Z,22.93
2022-11-20T04:44:05.135Z,21.37
2022-11-20T04:46:38.761Z,21.63
2022-11-20T04:49:06.458Z,23.77
2022-11-20T04:51:34.525Z,24.67
2022-11-20T04:54:02.311Z,22.13
2022-11-20T04:56:29.336Z,24.47
2022-11-20T04:58:56.118Z,24.63
2022-11-20T05:01:25.381Z,25.17
2022-11-20T05:03:52.896Z,24.73
2022-11-20T05:06:22.128Z,25.20
2022-11-20T05:08:49.147Z,28.40
2022-11-20T05:11:22.046Z,27.67
2022-11-20T05:13:50.446Z,24.20
2022-11-20T05:16:23.368Z,24.47
2022-11-20T05:18:52.324Z,24.43
2022-11-20T05:21:19.960Z,23.00
2022-11-20T05:23:47.673Z,26.30
2022-11-20T05:26:19.430Z,23.70
2022-11-20T05:28:47.932Z,24.67
2022-11-20T05:31:26.676Z,19.60
2022-11-20T05:33:57.014Z,24.43
2022-11-20T05:36:24.426Z,24.63
2022-11-20T05:38:52.385Z,22.93
2022-11-20T05:41:22.004Z,28.30
2022-11-20T05:43:50.677Z,24.17
2022-11-20T05:46:27.869Z,29.47
2022-11-20T05:48:57.575Z,25.77
2022-11-20T05:51:25.330Z,26.57
2022-11-20T05:53:52.097Z,30.03
2022-11-20T05:56:22.153Z,26.67
2022-11-20T05:58:50.025Z,29.53
2022-11-20T06:01:21.846Z,27.67
2022-11-20T06:03:50.356Z,28.27
2022-11-20T06:06:18.734Z,29.93
2022-11-20T06:08:46.771Z,28.10
2022-11-20T06:11:16.198Z,28.67
2022-11-20T06:13:43.655Z,28.73
2022-11-20T06:16:12.588Z,31.83
2022-11-20T06:18:40.192Z,30.27
2022-11-20T06:21:09.620Z,29.70
2022-11-20T06:23:37.352Z,26.73
2022-11-20T06:26:14.829Z,29.27
2022-11-20T06:28:42.140Z,30.00
2022-11-20T06:31:12.507Z,25.30
2022-11-20T06:33:39.375Z,28.93
2022-11-20T06:36:10.691Z,28.23
2022-11-20T06:38:39.414Z,29.33
2022-11-20T06:41:18.016Z,26.60
2022-11-20T06:43:45.161Z,32.03
2022-11-20T06:46:14.428Z,27.00
2022-11-20T06:48:41.741Z,30.57
2022-11-20T06:51:09.416Z,29.13
2022-11-20T06:53:37.884Z,27.10
2022-11-20T06:56:06.050Z,28.37
2022-11-20T06:58:34.935Z,29.67
2022-11-20T07:01:11.220Z,26.57
2022-11-20T07:03:38.958Z,34.90
2022-11-20T07:06:06.516Z,30.40
2022-11-20T07:08:34.199Z,24.00
2022-11-20T07:11:07.764Z,27.87
2022-11-20T07:13:35.432Z,30.73
2022-11-20T07:16:07.763Z,29.77
2022-11-20T07:18:35.159Z,28.87
2022-11-20T07:21:08.877Z,27.53
2022-11-20T07:23:36.107Z,28.10
2022-11-20T07:26:08.546Z,29.80
2022-11-20T07:28:36.715Z,25.13
2022-11-20T07:31:06.026Z,30.80
2022-11-20T07:33:33.275Z,28.00
2022-11-20T07:36:01.088Z,24.97
2022-11-20T07:38:27.952Z,27.07
2022-11-20T07:40:57.139Z,23.40
2022-11-20T07:43:24.926Z,26.53
2022-11-20T07:45:51.892Z,24.77
2022-11-20T07:48:18.679Z,24.40
2022-11-20T07:50:46.866Z,23.10
2022-11-20T07:53:14.852Z,22.27
2022-11-20T07:55:41.854Z,23.07
2022-11-20T07:58:08.743Z,19.73
2022-11-20T08:00:36.431Z,18.73
2022-11-20T08:03:07.002Z,20.03
2022-11-20T08:05:34.684Z,17.00
2022-11-20T08:08:02.387Z,19.87
2022-11-20T08:10:29.297Z,18.93
2022-11-20T08:13:14.518Z,18.00
2022-11-20T08:15:41.839Z,18.23
2022-11-20T08:18:30.592Z,19.37
2022-11-20T08:21:02.950Z,19.43
2022-11-20T08:23:29.789Z,18.80
2022-11-20T08:25:56.703Z,18.27
2022-11-20T08:28:23.847Z,15.73
2022-11-20T08:30:51.684Z,19.47
2022-11-20T08:33:19.576Z,20.10
2022-11-20T08:35:46.926Z,17.30
2022-11-20T08:38:13.890Z,15.97
2022-11-20T08:40:40.857Z,16.17
2022-11-20T08:43:07.860Z,15.20
2022-11-20T08:45:35.543Z,22.00
2022-11-20T08:48:04.311Z,18.47
2022-11-20T08:50:33.144Z,16.03
2022-11-20T08:53:05.764Z,17.17
2022-11-20T08:55:33.282Z,16.07
2022-11-20T08:58:05.390Z,14.73
2022-11-20T09:00:33.630Z,16.40
2022-11-20T09:03:02.290Z,17.63
2022-11-20T09:05:33.598Z,14.80
2022-11-20T09:08:01.257Z,14.93
2022-11-20T09:10:28.963Z,17.37
2022-11-20T09:12:56.567Z,15.97
2022-11-20T09:15:26.256Z,13.90
2022-11-20T09:17:54.600Z,16.67
2022-11-20T09:20:22.018Z,17.90
2022-11-20T09:22:49.878Z,16.57
2022-11-20T09:25:17.934Z,15.17
2022-11-20T09:27:46.763Z,14.87
2022-11-20T09:30:15.658Z,14.43
2022-11-20T09:32:43.793Z,14.57
2022-11-20T09:35:11.747Z,13.63
2022-11-20T09:37:39.107Z,17.13
2022-11-20T09:40:06.764Z,17.87
2022-11-20T09:43:16.151Z,17.07
2022-11-20T09:46:35.969Z,15.10
2022-11-20T09:49:43.436Z,13.90
2022-11-20T09:52:45.171Z,13.70
2022-11-20T09:55:16.117Z,15.50
2022-11-20T09:57:48.995Z,14.67
2022-11-20T10:00:17.503Z,16.43
2022-11-20T10:02:54.890Z,19.63
2022-11-20T10:05:38.699Z,17.23
2022-11-20T10:08:17.555Z,16.03
2022-11-20T10:11:14.589Z,17.00
2022-11-20T10:14:12.565Z,13.77
2022-11-20T10:17:12.274Z,14.67
2022-11-20T10:19:48.437Z,13.47
2022-11-20T10:22:56.048Z,12.73
2022-11-20T10:25:38.414Z,15.80
2022-11-20T10:28:29.676Z,13.77
2022-11-20T10:31:08.992Z,16.80
2022-11-20T10:34:10.651Z,16.37
2022-11-20T10:37:06.706Z,16.93
2022-11-20T10:40:08.935Z,13.67
2022-11-20T10:43:34.958Z,16.07
2022-11-20T10:46:20.899Z,13.97
2022-11-20T10:48:48.882Z,14.37
2022-11-20T10:52:12.211Z,14.40
2022-11-20T10:55:12.921Z,16.87
2022-11-20T10:58:16.360Z,15.07
2022-11-20T11:00:43.369Z,12.83
2022-11-20T11:03:29.573Z,13.60
2022-11-20T11:06:09.444Z,14.30
2022-11-20T11:08:40.601Z,13.67
2022-11-20T11:11:29.285Z,15.20
2022-11-20T11:14:14.772Z,14.80
2022-11-20T11:16:57.923Z,13.47
2022-11-20T11:19:25.705Z,16.57
2022-11-20T11:21:57.788Z,15.93
2022-11-20T11:24:46.013Z,15.97
2022-11-20T11:27:18.776Z,14.00
2022-11-20T11:29:47.246Z,14.67
2022-11-20T11:32:23.067Z,15.57
2022-11-20T11:35:19.532Z,19.87
2022-11-20T11:37:48.868Z,18.10
2022-11-20T11:40:25.987Z,19.07
2022-11-20T11:43:28.105Z,18.87
2022-11-20T11:45:56.948Z,20.30
2022-11-20T11:48:23.710Z,20.47
2022-11-20T11:50:52.851Z,23.57
2022-11-20T11:53:24.204Z,26.67
2022-11-20T11:56:10.768Z,21.33
2022-11-20T11:58:53.293Z,19.97
2022-11-20T12:01:50.221Z,21.70
2022-11-20T12:04:43.063Z,20.73
2022-11-20T12:07:46.989Z,24.27
2022-11-20T12:10:42.302Z,18.23
2022-11-20T12:13:35.725Z,25.07
2022-11-20T12:16:05.551Z,22.30
2022-11-20T12:18:32.837Z,23.97
2022-11-20T12:21:34.607Z,22.47
2022-11-20T12:24:19.429Z,20.50
2022-11-20T12:26:57.107Z,22.83
2022-11-20T12:29:57.273Z,21.90
2022-11-20T12:33:10.550Z,24.87
2022-11-20T12:35:54.160Z,25.03
2022-11-20T12:39:22.032Z,22.90
2022-11-20T12:42:44.851Z,25.07
2022-11-20T12:45:47.009Z,24.80
2022-11-20T12:48:43.534Z,23.53
2022-11-20T12:51:44.950Z,24.17
2022-11-20T12:54:44.719Z,23.13
2022-11-20T12:57:24.635Z,21.90
2022-11-20T13:00:14.811Z,23.53
2022-11-20T13:02:55.316Z,25.10
2022-11-20T13:05:46.419Z,22.93
2022-11-20T13:08:25.088Z,23.10
2022-11-20T13:11:26.603Z,23.53
2022-11-20T13:14:20.835Z,25.97
2022-11-20T13:17:34.150Z,25.33
2022-11-20T13:20:01.247Z,25.83
2022-11-20T13:22:58.807Z,25.63
2022-11-20T13:25:38.336Z,24.50
2022-11-20T13:28:26.269Z,29.17
2022-11-20T13:30:56.556Z,22.70
2022-11-20T13:33:39.078Z,25.10
2022-11-20T13:36:26.933Z,24.50
2022-11-20T13:38:57.003Z,26.03
2022-11-20T13:41:40.358Z,28.83
2022-11-20T13:44:26.316Z,27.23
2022-11-20T13:46:53.225Z,29.60
2022-11-20T13:49:42.504Z,27.63
2022-11-20T13:52:45.575Z,29.40
2022-11-20T13:55:36.173Z,28.10
2022-11-20T13:58:20.567Z,22.87
2022-11-20T14:01:08.955Z,31.67
2022-11-20T14:06:30.416Z,30.60
2022-11-20T14:09:00.330Z,41.10
2022-11-20T14:11:30.716Z,46.50
2022-11-20T14:14:17.439Z,32.47
2022-11-20T14:16:45.290Z,34.80
2022-11-20T14:19:21.082Z,34.53
2022-11-20T14:21:50.826Z,33.20
2022-11-20T14:24:24.436Z,36.20
2022-11-20T14:26:52.859Z,31.13
2022-11-20T14:29:37.453Z,32.30
2022-11-20T14:32:06.075Z,34.40
2022-11-20T14:34:41.623Z,34.43
2022-11-20T14:37:17.035Z,37.53
2022-11-20T14:39:54.614Z,28.33
2022-11-20T14:42:28.693Z,39.67
2022-11-20T14:45:02.073Z,34.17
2022-11-20T14:47:33.185Z,33.93
2022-11-20T14:50:07.187Z,37.10
2022-11-20T14:52:37.275Z,35.03
2022-11-20T14:55:05.197Z,34.43
2022-11-20T14:57:36.639Z,34.00
2022-11-20T15:00:12.927Z,35.60
2022-11-20T15:02:49.229Z,33.13
2022-11-20T15:05:19.639Z,31.47
2022-11-20T15:08:05.631Z,35.93
2022-11-20T15:10:33.296Z,33.93
2022-11-20T15:13:13.101Z,31.30
2022-11-20T15:15:50.894Z,34.13
2022-11-20T15:18:40.637Z,38.30
2022-11-20T15:21:23.814Z,41.40
2022-11-20T15:23:51.021Z,36.93
2022-11-20T15:26:29.024Z,36.57
2022-11-20T15:28:56.073Z,34.97
2022-11-20T15:31:24.969Z,37.43
2022-11-20T15:33:52.232Z,35.00
2022-11-20T15:36:19.170Z,36.77
2022-11-20T15:38:45.938Z,39.00
2022-11-20T15:41:12.820Z,40.00
2022-11-20T15:43:39.615Z,40.13
2022-11-20T15:46:12.214Z,40.43
2022-11-20T15:48:53.033Z,45.40
2022-11-20T15:51:37.993Z,39.90
2022-11-20T15:54:25.319Z,41.00
2022-11-20T15:56:55.492Z,44.83
2022-11-20T15:59:22.508Z,39.33
2022-11-20T16:01:49.390Z,42.87
2022-11-20T16:04:18.003Z,44.30
2022-11-20T16:06:44.987Z,45.43
2022-11-20T16:09:11.829Z,40.37
2022-11-20T16:11:39.065Z,44.07
2022-11-20T16:14:25.907Z,43.23
2022-11-20T16:16:53.020Z,60.37
2022-11-20T16:19:19.958Z,45.83
2022-11-20T16:21:46.860Z,44.63
2022-11-20T16:24:15.066Z,45.27
2022-11-20T16:26:42.787Z,45.40
2022-11-20T16:29:10.974Z,83.87
2022-11-20T16:31:38.458Z,48.87
2022-11-20T16:34:12.353Z,57.63
2022-11-20T16:36:46.001Z,48.77
2022-11-20T16:39:16.718Z,46.67
2022-11-20T16:41:46.667Z,16.67
2022-11-20T16:44:15.415Z,40.20
2022-11-20T16:46:42.881Z,37.53
2022-11-20T16:49:14.901Z,31.77
2022-11-20T16:51:43.047Z,34.13
2022-11-20T16:54:16.508Z,29.20
2022-11-20T16:56:48.456Z,25.47
2022-11-20T16:59:15.908Z,22.37
2022-11-20T17:01:44.442Z,17.70
2022-11-20T17:04:11.931Z,25.37
2022-11-20T17:06:44.528Z,19.57
2022-11-20T17:09:11.941Z,16.57
2022-11-20T17:11:39.818Z,16.00
2022-11-20T17:14:07.860Z,15.17
2022-11-20T17:16:36.596Z,14.70
2022-11-20T17:19:05.176Z,15.27
2022-11-20T17:21:36.081Z,16.37
2022-11-20T17:24:06.425Z,16.00
2022-11-20T17:26:35.016Z,14.60
2022-11-20T17:29:03.282Z,14.13
2022-11-20T17:31:33.709Z,13.13
2022-11-20T17:34:01.830Z,11.33
2022-11-20T17:36:30.436Z,13.63
2022-11-20T17:38:58.235Z,11.70
2022-11-20T17:41:28.706Z,10.63
2022-11-20T17:43:59.336Z,9.80
2022-11-20T17:46:30.492Z,9.63
2022-11-20T17:48:57.254Z,6.33
2022-11-20T17:51:30.932Z,6.23
2022-11-20T17:54:01.668Z,5.60
2022-11-20T17:56:54.458Z,6.77
2022-11-20T17:59:21.858Z,6.50
2022-11-20T18:01:49.255Z,7.17
2022-11-20T18:04:16.955Z,6.90
2022-11-20T18:06:44.312Z,7.73
2022-11-20T18:09:11.554Z,6.00
2022-11-20T18:11:41.131Z,6.17
2022-11-20T18:14:51.605Z,7.80
2022-11-20T18:17:18.326Z,6.90
2022-11-20T18:20:13.735Z,9.57
2022-11-20T18:22:34.523Z,7.03
2022-11-20T18:25:01.376Z,7.37
2022-11-20T18:27:28.069Z,6.43
2022-11-20T18:29:55.013Z,4.93
2022-11-20T18:32:22.742Z,6.23
2022-11-20T18:34:51.214Z,6.10
2022-11-20T18:37:19.436Z,5.57
2022-11-20T18:39:46.394Z,4.53
2022-11-20T18:42:34.503Z,3.93
2022-11-20T18:45:04.266Z,5.77
2022-11-20T18:47:37.504Z,2.77
2022-11-20T18:50:07.481Z,4.43
2022-11-20T18:52:41.730Z,3.47
2022-11-20T18:55:10.084Z,2.80
2022-11-20T18:57:36.889Z,2.67
2022-11-20T19:00:09.397Z,3.30
2022-11-20T19:02:41.598Z,4.30
2022-11-20T19:05:14.585Z,2.20
2022-11-20T19:07:42.921Z,3.93
2022-11-20T19:10:10.097Z,5.53
2022-11-20T19:12:37.068Z,2.83
2022-11-20T19:15:04.605Z,8.57
2022-11-20T19:17:34.057Z,4.57
2022-11-20T19:20:01.058Z,3.87
2022-11-20T19:22:27.875Z,4.27
2022-11-20T19:24:54.737Z,4.07
2022-11-20T19:27:21.520Z,3.23
2022-11-20T19:29:48.263Z,3.70
2022-11-20T19:32:16.249Z,2.77
2022-11-20T19:34:43.610Z,2.47
2022-11-20T19:37:10.388Z,2.33
2022-11-20T19:39:37.392Z,3.00
2022-11-20T19:42:04.235Z,3.23
2022-11-20T19:44:32.835Z,2.80
2022-11-20T19:46:59.737Z,2.17
2022-11-20T19:49:26.731Z,2.47
2022-11-20T19:51:53.698Z,4.37
2022-11-20T19:54:20.492Z,5.63
2022-11-20T19:56:49.323Z,4.93
2022-11-20T19:59:16.362Z,3.67
2022-11-20T20:01:43.518Z,8.40
2022-11-20T20:04:10.362Z,5.70
2022-11-20T20:06:38.959Z,4.43
2022-11-20T20:09:12.638Z,17.60
2022-11-20T20:11:40.662Z,8.27
2022-11-20T20:14:15.660Z,7.10
2022-11-20T20:16:43.190Z,5.83
2022-11-20T20:19:15.967Z,8.70
2022-11-20T20:21:44.005Z,9.47
2022-11-20T20:24:11.948Z,14.33
2022-11-20T20:26:38.963Z,10.80
2022-11-20T20:29:05.745Z,12.23
2022-11-20T20:31:34.195Z,10.17
2022-11-20T20:34:03.278Z,13.37
2022-11-20T20:36:30.121Z,10.43
2022-11-20T20:39:04.972Z,11.20
2022-11-20T20:41:32.186Z,11.03
2022-11-20T20:44:17.888Z,10.23
2022-11-20T20:46:44.662Z,9.73
2022-11-20T20:49:11.763Z,9.97
2022-11-20T20:51:38.862Z,10.97
2022-11-20T20:54:05.728Z,11.43
2022-11-20T20:56:32.666Z,8.60
2022-11-20T20:58:59.474Z,12.33
2022-11-20T21:01:28.833Z,13.27
2022-11-20T21:03:56.639Z,12.87
2022-11-20T21:06:24.198Z,18.47
2022-11-20T21:08:51.027Z,11.90
2022-11-20T21:11:20.355Z,12.43
2022-11-20T21:13:48.906Z,12.93
2022-11-20T21:16:18.396Z,12.60
2022-11-20T21:18:45.682Z,12.70
2022-11-20T21:21:33.231Z,14.57
2022-11-20T21:24:00.588Z,7.70
2022-11-20T21:26:27.513Z,17.40
2022-11-20T21:28:54.300Z,12.23
2022-11-20T21:31:24.899Z,19.80
2022-11-20T21:33:54.314Z,12.97
2022-11-20T21:36:24.745Z,17.93
2022-11-20T21:38:54.754Z,11.63
2022-11-20T21:41:23.704Z,17.67
2022-11-20T21:44:29.148Z,18.63
2022-11-20T21:46:45.807Z,18.13
2022-11-20T21:49:13.176Z,20.90
2022-11-20T21:51:40.265Z,17.87
2022-11-20T21:54:07.192Z,9.60
2022-11-20T21:56:33.962Z,13.43
2022-11-20T21:59:00.769Z,18.47
2022-11-20T22:01:30.348Z,15.73
2022-11-20T22:04:01.155Z,14.23
2022-11-20T22:06:33.184Z,17.83
2022-11-20T22:09:03.616Z,16.27
2022-11-20T22:11:30.928Z,17.67
2022-11-20T22:14:16.953Z,20.67
2022-11-20T22:16:43.869Z,25.57
2022-11-20T22:19:10.688Z,14.33
2022-11-20T22:21:40.518Z,17.00
2022-11-20T22:24:08.533Z,16.77
2022-11-20T22:26:40.246Z,18.23
2022-11-20T22:29:12.128Z,13.13
2022-11-20T22:31:39.023Z,14.10
2022-11-20T22:34:05.888Z,16.03
2022-11-20T22:36:32.735Z,12.67
2022-11-20T22:39:02.688Z,13.73
2022-11-20T22:41:30.322Z,12.70
2022-11-20T22:44:00.091Z,14.20
2022-11-20T22:46:30.761Z,12.13
2022-11-20T22:49:01.387Z,8.67
2022-11-20T22:51:36.021Z,8.80
2022-11-20T22:54:03.532Z,11.73
2022-11-20T22:56:31.383Z,13.80
2022-11-20T22:58:58.536Z,11.10
2022-11-20T23:01:35.200Z,17.10
2022-11-20T23:04:06.115Z,18.13
2022-11-20T23:06:36.492Z,16.40
2022-11-20T23:09:06.042Z,26.50
2022-11-20T23:11:33.523Z,20.37
2022-11-20T23:14:07.169Z,17.57
2022-11-20T23:16:35.634Z,17.57
2022-11-20T23:19:07.205Z,18.13
2022-11-20T23:21:37.471Z,16.43
2022-11-20T23:24:05.807Z,21.47
2022-11-20T23:26:54.942Z,19.30
2022-11-20T23:29:21.799Z,18.70
2022-11-20T23:31:48.611Z,13.97
2022-11-20T23:34:15.411Z,14.93
2022-11-20T23:36:42.270Z,12.80
2022-11-20T23:39:09.952Z,21.20
2022-11-20T23:41:36.722Z,15.03
2022-11-20T23:44:04.228Z,17.03
2022-11-20T23:46:30.946Z,11.67
2022-11-20T23:48:57.666Z,18.10
2022-11-20T23:51:24.721Z,13.97
2022-11-20T23:53:51.473Z,15.60
2022-11-20T23:56:18.529Z,19.37
2022-11-20T23:58:45.256Z,15.90
